sensor_id;sensor_type;location;lat;lon;timestamp;pressure;altitude;pressure_sealevel;temperature;humidity
76766;BME280;65707;52.362;6.588;2023-03-01T00:02:21;103229.31;;;0.41;64.81
76766;BME280;65707;52.362;6.588;2023-03-01T00:04:48;103227.66;;;0.37;64.90
76766;BME280;65707;52.362;6.588;2023-03-01T00:07:15;103228.69;;;0.31;65.26
76766;BME280;65707;52.362;6.588;2023-03-01T00:09:42;103231.13;;;0.39;64.85
76766;BME280;65707;52.362;6.588;2023-03-01T00:12:11;103215.47;;;0.33;64.83
76766;BME280;65707;52.362;6.588;2023-03-01T00:14:38;103222.47;;;0.34;65.04
76766;BME280;65707;52.362;6.588;2023-03-01T00:17:05;103218.38;;;0.22;65.47
76766;BME280;65707;52.362;6.588;2023-03-01T00:19:34;103222.72;;;0.25;65.64
76766;BME280;65707;52.362;6.588;2023-03-01T00:22:01;103217.44;;;0.25;65.45
76766;BME280;65707;52.362;6.588;2023-03-01T00:24:28;103210.56;;;0.19;65.18
76766;BME280;65707;52.362;6.588;2023-03-01T00:26:55;103212.59;;;0.10;65.54
76766;BME280;65707;52.362;6.588;2023-03-01T00:29:22;103212.41;;;0.17;65.33
76766;BME280;65707;52.362;6.588;2023-03-01T00:31:50;103211.53;;;0.17;65.37
76766;BME280;65707;52.362;6.588;2023-03-01T00:34:17;103214.06;;;0.20;65.16
76766;BME280;65707;52.362;6.588;2023-03-01T00:36:45;103211.31;;;-0.07;66.17
76766;BME280;65707;52.362;6.588;2023-03-01T00:39:14;103212.97;;;-0.03;66.56
76766;BME280;65707;52.362;6.588;2023-03-01T00:41:42;103209.41;;;-0.02;66.06
76766;BME280;65707;52.362;6.588;2023-03-01T00:44:10;103212.72;;;0.05;66.42
76766;BME280;65707;52.362;6.588;2023-03-01T00:46:37;103211.88;;;0.05;66.38
76766;BME280;65707;52.362;6.588;2023-03-01T00:49:04;103209.25;;;0.05;66.42
76766;BME280;65707;52.362;6.588;2023-03-01T00:51:31;103212.69;;;0.07;66.00
76766;BME280;65707;52.362;6.588;2023-03-01T00:54:01;103191.75;;;0.00;66.25
76766;BME280;65707;52.362;6.588;2023-03-01T00:56:29;103205.75;;;0.04;65.84
76766;BME280;65707;52.362;6.588;2023-03-01T00:58:56;103204.06;;;0.02;65.92
76766;BME280;65707;52.362;6.588;2023-03-01T01:01:25;103204.81;;;0.05;66.21
76766;BME280;65707;52.362;6.588;2023-03-01T01:03:57;103207.59;;;0.00;65.99
76766;BME280;65707;52.362;6.588;2023-03-01T01:06:28;103215.06;;;-0.15;66.81
76766;BME280;65707;52.362;6.588;2023-03-01T01:08:57;103204.38;;;-0.11;66.41
76766;BME280;65707;52.362;6.588;2023-03-01T01:11:28;103207.38;;;-0.23;66.85
76766;BME280;65707;52.362;6.588;2023-03-01T01:13:56;103222.75;;;-0.38;67.94
76766;BME280;65707;52.362;6.588;2023-03-01T01:16:25;103215.44;;;-0.61;68.34
76766;BME280;65707;52.362;6.588;2023-03-01T01:18:54;103216.44;;;-0.33;67.67
76766;BME280;65707;52.362;6.588;2023-03-01T01:21:23;103198.88;;;-0.34;67.28
76766;BME280;65707;52.362;6.588;2023-03-01T01:23:51;103200.59;;;-0.33;67.31
76766;BME280;65707;52.362;6.588;2023-03-01T01:26:21;103188.31;;;-0.66;68.22
76766;BME280;65707;52.362;6.588;2023-03-01T01:28:51;103198.38;;;-0.48;68.37
76766;BME280;65707;52.362;6.588;2023-03-01T01:31:18;103201.69;;;-0.40;68.39
76766;BME280;65707;52.362;6.588;2023-03-01T01:33:46;103191.16;;;-0.40;67.68
76766;BME280;65707;52.362;6.588;2023-03-01T01:36:13;103181.41;;;-0.38;67.95
76766;BME280;65707;52.362;6.588;2023-03-01T01:38:40;103183.19;;;-0.38;67.45
76766;BME280;65707;52.362;6.588;2023-03-01T01:41:08;103165.88;;;-0.48;67.31
76766;BME280;65707;52.362;6.588;2023-03-01T01:43:39;103184.47;;;-0.53;68.10
76766;BME280;65707;52.362;6.588;2023-03-01T01:46:16;103173.09;;;-0.55;67.64
76766;BME280;65707;52.362;6.588;2023-03-01T01:48:55;103172.19;;;-0.54;67.55
76766;BME280;65707;52.362;6.588;2023-03-01T01:51:29;103180.03;;;-0.51;67.90
76766;BME280;65707;52.362;6.588;2023-03-01T01:54:04;103172.03;;;-0.48;67.92
76766;BME280;65707;52.362;6.588;2023-03-01T01:56:36;103165.00;;;-0.49;67.79
76766;BME280;65707;52.362;6.588;2023-03-01T01:59:07;103171.09;;;-0.47;67.61
76766;BME280;65707;52.362;6.588;2023-03-01T02:01:36;103171.06;;;-0.45;67.71
76766;BME280;65707;52.362;6.588;2023-03-01T02:04:03;103173.75;;;-0.47;67.80
76766;BME280;65707;52.362;6.588;2023-03-01T02:06:33;103162.31;;;-0.46;68.16
76766;BME280;65707;52.362;6.588;2023-03-01T02:09:07;103159.19;;;-0.60;67.74
76766;BME280;65707;52.362;6.588;2023-03-01T02:11:39;103158.19;;;-0.56;68.00
76766;BME280;65707;52.362;6.588;2023-03-01T02:14:07;103154.94;;;-1.00;69.19
76766;BME280;65707;52.362;6.588;2023-03-01T02:16:35;103169.28;;;-0.77;68.96
76766;BME280;65707;52.362;6.588;2023-03-01T02:19:03;103159.91;;;-0.87;69.29
76766;BME280;65707;52.362;6.588;2023-03-01T02:21:38;103164.25;;;-1.21;70.25
76766;BME280;65707;52.362;6.588;2023-03-01T02:24:21;103176.06;;;-1.02;70.53
76766;BME280;65707;52.362;6.588;2023-03-01T02:26:57;103160.06;;;-0.93;69.98
76766;BME280;65707;52.362;6.588;2023-03-01T02:29:26;103154.59;;;-0.85;69.38
76766;BME280;65707;52.362;6.588;2023-03-01T02:31:56;103137.22;;;-0.94;69.10
76766;BME280;65707;52.362;6.588;2023-03-01T02:34:27;103134.50;;;-0.91;68.90
76766;BME280;65707;52.362;6.588;2023-03-01T02:36:59;103143.16;;;-0.86;68.63
76766;BME280;65707;52.362;6.588;2023-03-01T02:39:32;103142.34;;;-0.88;68.60
76766;BME280;65707;52.362;6.588;2023-03-01T02:42:10;103138.06;;;-0.92;69.03
76766;BME280;65707;52.362;6.588;2023-03-01T02:44:41;103136.34;;;-0.93;69.16
76766;BME280;65707;52.362;6.588;2023-03-01T02:47:07;103132.94;;;-0.98;69.04
76766;BME280;65707;52.362;6.588;2023-03-01T02:49:35;103120.75;;;-1.02;69.21
76766;BME280;65707;52.362;6.588;2023-03-01T02:52:20;103124.22;;;-1.00;69.34
76766;BME280;65707;52.362;6.588;2023-03-01T02:54:58;103127.72;;;-0.99;69.88
76766;BME280;65707;52.362;6.588;2023-03-01T02:57:30;103135.38;;;-0.90;69.31
76766;BME280;65707;52.362;6.588;2023-03-01T03:00:03;103133.72;;;-0.93;69.39
76766;BME280;65707;52.362;6.588;2023-03-01T03:02:34;103125.97;;;-1.00;69.32
76766;BME280;65707;52.362;6.588;2023-03-01T03:05:07;103127.84;;;-1.04;68.79
76766;BME280;65707;52.362;6.588;2023-03-01T03:07:39;103112.22;;;-1.11;69.17
76766;BME280;65707;52.362;6.588;2023-03-01T03:10:10;103125.09;;;-0.99;69.01
76766;BME280;65707;52.362;6.588;2023-03-01T03:12:39;103119.06;;;-1.04;69.36
76766;BME280;65707;52.362;6.588;2023-03-01T03:15:10;103126.72;;;-1.29;70.53
76766;BME280;65707;52.362;6.588;2023-03-01T03:17:39;103126.81;;;-1.33;71.28
76766;BME280;65707;52.362;6.588;2023-03-01T03:20:11;103120.47;;;-1.25;71.00
76766;BME280;65707;52.362;6.588;2023-03-01T03:22:44;103115.13;;;-1.22;70.29
76766;BME280;65707;52.362;6.588;2023-03-01T03:25:11;103101.88;;;-1.19;69.78
76766;BME280;65707;52.362;6.588;2023-03-01T03:27:39;103105.34;;;-1.17;69.73
76766;BME280;65707;52.362;6.588;2023-03-01T03:30:13;103101.13;;;-1.24;70.10
76766;BME280;65707;52.362;6.588;2023-03-01T03:32:43;103117.69;;;-1.19;69.81
76766;BME280;65707;52.362;6.588;2023-03-01T03:35:18;103121.38;;;-1.26;69.63
76766;BME280;65707;52.362;6.588;2023-03-01T03:37:46;103116.97;;;-1.25;69.81
76766;BME280;65707;52.362;6.588;2023-03-01T03:40:30;103122.53;;;-1.37;69.92
76766;BME280;65707;52.362;6.588;2023-03-01T03:43:00;103118.03;;;-1.32;69.92
76766;BME280;65707;52.362;6.588;2023-03-01T03:45:28;103117.06;;;-1.30;69.44
76766;BME280;65707;52.362;6.588;2023-03-01T03:47:58;103115.47;;;-1.35;70.05
76766;BME280;65707;52.362;6.588;2023-03-01T03:50:25;103118.09;;;-1.35;70.31
76766;BME280;65707;52.362;6.588;2023-03-01T03:52:55;103120.25;;;-1.51;71.35
76766;BME280;65707;52.362;6.588;2023-03-01T03:55:22;103116.38;;;-1.38;70.93
76766;BME280;65707;52.362;6.588;2023-03-01T03:57:53;103121.50;;;-1.32;70.83
76766;BME280;65707;52.362;6.588;2023-03-01T04:00:21;103115.44;;;-1.34;70.44
76766;BME280;65707;52.362;6.588;2023-03-01T04:02:51;103115.28;;;-1.28;70.59
76766;BME280;65707;52.362;6.588;2023-03-01T04:05:22;103119.56;;;-1.24;70.64
76766;BME280;65707;52.362;6.588;2023-03-01T04:07:49;103117.72;;;-1.20;70.22
76766;BME280;65707;52.362;6.588;2023-03-01T04:10:27;103126.56;;;-1.23;69.78
76766;BME280;65707;52.362;6.588;2023-03-01T04:12:54;103109.06;;;-1.25;69.95
76766;BME280;65707;52.362;6.588;2023-03-01T04:15:23;103104.94;;;-1.35;69.33
76766;BME280;65707;52.362;6.588;2023-03-01T04:17:53;103107.78;;;-1.44;69.89
76766;BME280;65707;52.362;6.588;2023-03-01T04:20:23;103101.66;;;-1.45;69.92
76766;BME280;65707;52.362;6.588;2023-03-01T04:22:59;103109.56;;;-1.45;70.01
76766;BME280;65707;52.362;6.588;2023-03-01T04:25:36;103101.75;;;-1.48;70.27
76766;BME280;65707;52.362;6.588;2023-03-01T04:28:04;103105.38;;;-1.53;69.78
76766;BME280;65707;52.362;6.588;2023-03-01T04:30:31;103095.88;;;-1.59;69.96
76766;BME280;65707;52.362;6.588;2023-03-01T04:33:03;103078.84;;;-1.81;71.19
76766;BME280;65707;52.362;6.588;2023-03-01T04:35:30;103098.22;;;-1.85;72.13
76766;BME280;65707;52.362;6.588;2023-03-01T04:37:57;103096.28;;;-1.77;71.79
76766;BME280;65707;52.362;6.588;2023-03-01T04:40:25;103087.44;;;-1.73;70.91
76766;BME280;65707;52.362;6.588;2023-03-01T04:42:51;103087.34;;;-1.70;70.76
76766;BME280;65707;52.362;6.588;2023-03-01T04:45:19;103070.69;;;-1.71;71.04
76766;BME280;65707;52.362;6.588;2023-03-01T04:47:46;103080.50;;;-1.77;71.22
76766;BME280;65707;52.362;6.588;2023-03-01T04:50:19;103069.09;;;-1.76;71.35
76766;BME280;65707;52.362;6.588;2023-03-01T04:52:48;103076.88;;;-1.72;71.29
76766;BME280;65707;52.362;6.588;2023-03-01T04:55:15;103076.88;;;-1.72;71.10
76766;BME280;65707;52.362;6.588;2023-03-01T04:57:42;103077.78;;;-1.74;71.28
76766;BME280;65707;52.362;6.588;2023-03-01T05:00:11;103071.78;;;-1.79;70.80
76766;BME280;65707;52.362;6.588;2023-03-01T05:02:50;103073.09;;;-1.98;71.73
76766;BME280;65707;52.362;6.588;2023-03-01T05:05:25;103074.06;;;-2.02;72.21
76766;BME280;65707;52.362;6.588;2023-03-01T05:07:57;103051.50;;;-2.12;73.06
76766;BME280;65707;52.362;6.588;2023-03-01T05:10:26;103059.03;;;-1.97;72.20
76766;BME280;65707;52.362;6.588;2023-03-01T05:12:54;103059.00;;;-1.96;71.58
76766;BME280;65707;52.362;6.588;2023-03-01T05:15:23;103030.66;;;-2.21;71.06
76766;BME280;65707;52.362;6.588;2023-03-01T05:17:51;103055.69;;;-2.04;71.20
76766;BME280;65707;52.362;6.588;2023-03-01T05:20:19;103061.75;;;-2.00;70.93
76766;BME280;65707;52.362;6.588;2023-03-01T05:22:51;103045.34;;;-2.11;70.57
76766;BME280;65707;52.362;6.588;2023-03-01T05:25:19;103049.63;;;-2.07;71.00
76766;BME280;65707;52.362;6.588;2023-03-01T05:27:46;103050.50;;;-2.07;71.02
76766;BME280;65707;52.362;6.588;2023-03-01T05:30:14;103053.16;;;-2.08;71.47
76766;BME280;65707;52.362;6.588;2023-03-01T05:32:43;103052.19;;;-2.04;71.28
76766;BME280;65707;52.362;6.588;2023-03-01T05:35:13;103020.91;;;-2.16;70.88
76766;BME280;65707;52.362;6.588;2023-03-01T05:37:42;103047.75;;;-2.02;71.13
76766;BME280;65707;52.362;6.588;2023-03-01T05:40:13;103039.00;;;-2.01;71.92
76766;BME280;65707;52.362;6.588;2023-03-01T05:42:45;103036.28;;;-1.98;71.37
76766;BME280;65707;52.362;6.588;2023-03-01T05:45:14;103032.88;;;-2.03;70.80
76766;BME280;65707;52.362;6.588;2023-03-01T05:47:43;103036.41;;;-2.04;71.35
76766;BME280;65707;52.362;6.588;2023-03-01T05:50:14;103039.84;;;-2.01;70.63
76766;BME280;65707;52.362;6.588;2023-03-01T05:52:44;103043.47;;;-2.06;72.18
76766;BME280;65707;52.362;6.588;2023-03-01T05:55:13;103028.66;;;-2.10;71.44
76766;BME280;65707;52.362;6.588;2023-03-01T05:57:40;103035.59;;;-2.06;71.85
76766;BME280;65707;52.362;6.588;2023-03-01T06:00:09;103033.13;;;-2.14;71.04
76766;BME280;65707;52.362;6.588;2023-03-01T06:02:37;103041.97;;;-2.18;70.96
76766;BME280;65707;52.362;6.588;2023-03-01T06:05:04;103035.00;;;-2.19;70.71
76766;BME280;65707;52.362;6.588;2023-03-01T06:07:32;103037.53;;;-2.14;70.97
76766;BME280;65707;52.362;6.588;2023-03-01T06:10:00;103035.06;;;-2.22;71.99
76766;BME280;65707;52.362;6.588;2023-03-01T06:12:31;103023.81;;;-2.28;71.40
76766;BME280;65707;52.362;6.588;2023-03-01T06:14:59;103033.56;;;-2.33;71.64
76766;BME280;65707;52.362;6.588;2023-03-01T06:17:28;103026.66;;;-2.37;71.99
76766;BME280;65707;52.362;6.588;2023-03-01T06:19:56;103036.06;;;-2.27;71.50
76766;BME280;65707;52.362;6.588;2023-03-01T06:22:23;103047.38;;;-2.24;71.63
76766;BME280;65707;52.362;6.588;2023-03-01T06:24:50;103045.69;;;-2.26;71.83
76766;BME280;65707;52.362;6.588;2023-03-01T06:27:17;103043.94;;;-2.27;71.99
76766;BME280;65707;52.362;6.588;2023-03-01T06:29:45;103047.41;;;-2.25;71.53
76766;BME280;65707;52.362;6.588;2023-03-01T06:32:12;103047.50;;;-2.30;71.50
76766;BME280;65707;52.362;6.588;2023-03-01T06:34:39;103049.16;;;-2.26;71.33
76766;BME280;65707;52.362;6.588;2023-03-01T06:37:06;103051.00;;;-2.29;71.41
76766;BME280;65707;52.362;6.588;2023-03-01T06:39:33;103043.09;;;-2.29;71.48
76766;BME280;65707;52.362;6.588;2023-03-01T06:42:00;103052.50;;;-2.18;71.85
76766;BME280;65707;52.362;6.588;2023-03-01T06:44:29;103053.16;;;-2.08;72.24
76766;BME280;65707;52.362;6.588;2023-03-01T06:46:57;103050.34;;;-2.01;72.39
76766;BME280;65707;52.362;6.588;2023-03-01T06:49:24;103044.22;;;-2.00;72.39
76766;BME280;65707;52.362;6.588;2023-03-01T06:51:52;103047.53;;;-1.93;72.22
76766;BME280;65707;52.362;6.588;2023-03-01T06:54:19;103057.81;;;-1.81;71.99
76766;BME280;65707;52.362;6.588;2023-03-01T06:56:47;103059.44;;;-1.77;71.53
76766;BME280;65707;52.362;6.588;2023-03-01T06:59:15;103057.03;;;-1.86;72.22
76766;BME280;65707;52.362;6.588;2023-03-01T07:01:43;103068.03;;;-1.69;71.94
76766;BME280;65707;52.362;6.588;2023-03-01T07:04:12;103074.88;;;-1.62;71.85
76766;BME280;65707;52.362;6.588;2023-03-01T07:06:39;103075.50;;;-1.51;71.82
76766;BME280;65707;52.362;6.588;2023-03-01T07:09:07;103071.69;;;-1.39;71.87
76766;BME280;65707;52.362;6.588;2023-03-01T07:11:34;103063.44;;;-1.26;72.06
76766;BME280;65707;52.362;6.588;2023-03-01T07:14:01;103065.81;;;-1.15;71.86
76766;BME280;65707;52.362;6.588;2023-03-01T07:16:28;103062.75;;;-1.00;72.13
76766;BME280;65707;52.362;6.588;2023-03-01T07:18:55;103048.06;;;-1.09;72.36
76766;BME280;65707;52.362;6.588;2023-03-01T07:21:23;103048.41;;;-0.89;72.34
76766;BME280;65707;52.362;6.588;2023-03-01T07:23:50;103043.97;;;-0.87;72.04
76766;BME280;65707;52.362;6.588;2023-03-01T07:26:17;103049.66;;;-0.71;72.29
76766;BME280;65707;52.362;6.588;2023-03-01T07:28:44;103052.91;;;-0.62;72.62
76766;BME280;65707;52.362;6.588;2023-03-01T07:31:11;103059.28;;;-0.40;71.90
76766;BME280;65707;52.362;6.588;2023-03-01T07:33:37;103050.78;;;-0.20;71.53
76766;BME280;65707;52.362;6.588;2023-03-01T07:36:05;103031.44;;;0.36;70.80
76766;BME280;65707;52.362;6.588;2023-03-01T07:38:34;103035.50;;;0.97;70.20
76766;BME280;65707;52.362;6.588;2023-03-01T07:41:02;102998.53;;;1.66;68.47
76766;BME280;65707;52.362;6.588;2023-03-01T07:43:31;103014.09;;;2.60;65.50
76766;BME280;65707;52.362;6.588;2023-03-01T07:45:58;103002.66;;;2.99;63.79
76766;BME280;65707;52.362;6.588;2023-03-01T07:48:26;102998.16;;;3.40;61.49
76766;BME280;65707;52.362;6.588;2023-03-01T07:50:53;102984.91;;;4.13;59.22
76766;BME280;65707;52.362;6.588;2023-03-01T07:53:20;102982.44;;;4.27;58.46
76766;BME280;65707;52.362;6.588;2023-03-01T07:55:48;102978.38;;;4.37;56.83
76766;BME280;65707;52.362;6.588;2023-03-01T07:58:15;102977.31;;;4.75;57.19
76766;BME280;65707;52.362;6.588;2023-03-01T08:00:42;102975.75;;;4.54;56.56
76766;BME280;65707;52.362;6.588;2023-03-01T08:03:09;102963.81;;;4.95;55.95
76766;BME280;65707;52.362;6.588;2023-03-01T08:05:35;102973.63;;;4.95;56.13
76766;BME280;65707;52.362;6.588;2023-03-01T08:08:05;102960.53;;;5.71;53.63
76766;BME280;65707;52.362;6.588;2023-03-01T08:10:32;102965.81;;;6.03;52.83
76766;BME280;65707;52.362;6.588;2023-03-01T08:13:00;102970.63;;;6.12;53.45
76766;BME280;65707;52.362;6.588;2023-03-01T08:15:27;102970.78;;;6.25;53.84
76766;BME280;65707;52.362;6.588;2023-03-01T08:17:54;102961.09;;;6.68;52.17
76766;BME280;65707;52.362;6.588;2023-03-01T08:20:21;102951.53;;;6.50;51.59
76766;BME280;65707;52.362;6.588;2023-03-01T08:22:47;102963.94;;;6.65;51.09
76766;BME280;65707;52.362;6.588;2023-03-01T08:25:14;102962.41;;;7.18;49.08
76766;BME280;65707;52.362;6.588;2023-03-01T08:27:41;102958.19;;;6.86;49.15
76766;BME280;65707;52.362;6.588;2023-03-01T08:30:11;102953.75;;;7.43;48.21
76766;BME280;65707;52.362;6.588;2023-03-01T08:32:39;102955.44;;;7.44;48.05
76766;BME280;65707;52.362;6.588;2023-03-01T08:35:07;102953.59;;;7.72;47.27
76766;BME280;65707;52.362;6.588;2023-03-01T08:37:34;102941.75;;;8.03;46.13
76766;BME280;65707;52.362;6.588;2023-03-01T08:40:01;102938.69;;;8.09;45.39
76766;BME280;65707;52.362;6.588;2023-03-01T08:42:29;102933.69;;;8.44;44.59
76766;BME280;65707;52.362;6.588;2023-03-01T08:44:56;102937.50;;;8.66;45.65
76766;BME280;65707;52.362;6.588;2023-03-01T08:47:25;102934.53;;;9.57;42.90
76766;BME280;65707;52.362;6.588;2023-03-01T08:49:52;102931.81;;;9.08;44.30
76766;BME280;65707;52.362;6.588;2023-03-01T08:52:19;102920.03;;;9.72;41.76
76766;BME280;65707;52.362;6.588;2023-03-01T08:54:47;102919.63;;;9.66;41.49
76766;BME280;65707;52.362;6.588;2023-03-01T08:57:14;102931.28;;;9.16;42.25
76766;BME280;65707;52.362;6.588;2023-03-01T08:59:41;102920.47;;;9.17;42.38
76766;BME280;65707;52.362;6.588;2023-03-01T09:02:12;102913.16;;;9.32;42.27
76766;BME280;65707;52.362;6.588;2023-03-01T09:04:42;102921.72;;;9.37;40.98
76766;BME280;65707;52.362;6.588;2023-03-01T09:07:10;102914.66;;;9.49;40.02
76766;BME280;65707;52.362;6.588;2023-03-01T09:09:37;102932.22;;;9.40;40.16
76766;BME280;65707;52.362;6.588;2023-03-01T09:12:04;102921.88;;;9.23;41.14
76766;BME280;65707;52.362;6.588;2023-03-01T09:14:31;102923.44;;;9.25;40.35
76766;BME280;65707;52.362;6.588;2023-03-01T09:16:58;102901.81;;;9.65;39.51
76766;BME280;65707;52.362;6.588;2023-03-01T09:19:28;102925.41;;;9.23;40.84
76766;BME280;65707;52.362;6.588;2023-03-01T09:21:56;102923.44;;;9.74;40.48
76766;BME280;65707;52.362;6.588;2023-03-01T09:24:24;102914.94;;;9.93;39.73
76766;BME280;65707;52.362;6.588;2023-03-01T09:26:55;102905.91;;;10.41;39.12
76766;BME280;65707;52.362;6.588;2023-03-01T09:29:23;102916.00;;;10.37;38.36
76766;BME280;65707;52.362;6.588;2023-03-01T09:31:51;102914.06;;;10.74;37.34
76766;BME280;65707;52.362;6.588;2023-03-01T09:34:20;102910.41;;;10.86;35.82
76766;BME280;65707;52.362;6.588;2023-03-01T09:36:48;102910.00;;;10.68;37.32
76766;BME280;65707;52.362;6.588;2023-03-01T09:39:17;102887.81;;;10.66;37.00
76766;BME280;65707;52.362;6.588;2023-03-01T09:41:49;102896.75;;;11.11;36.94
76766;BME280;65707;52.362;6.588;2023-03-01T09:44:36;102883.91;;;11.70;34.88
76766;BME280;65707;52.362;6.588;2023-03-01T09:47:09;102879.41;;;11.48;34.91
76766;BME280;65707;52.362;6.588;2023-03-01T09:49:45;102872.16;;;11.71;34.46
76766;BME280;65707;52.362;6.588;2023-03-01T09:52:24;102870.38;;;11.92;33.82
76766;BME280;65707;52.362;6.588;2023-03-01T09:54:58;102866.97;;;11.90;34.54
76766;BME280;65707;52.362;6.588;2023-03-01T09:57:30;102865.13;;;12.22;32.24
76766;BME280;65707;52.362;6.588;2023-03-01T10:00:26;102862.63;;;12.71;31.84
76766;BME280;65707;52.362;6.588;2023-03-01T10:03:05;102849.56;;;12.67;31.18
76766;BME280;65707;52.362;6.588;2023-03-01T10:05:46;102849.38;;;12.89;31.70
76766;BME280;65707;52.362;6.588;2023-03-01T10:08:37;102834.66;;;13.23;30.34
76766;BME280;65707;52.362;6.588;2023-03-01T10:11:20;102841.84;;;13.03;30.98
76766;BME280;65707;52.362;6.588;2023-03-01T10:13:56;102833.72;;;13.33;30.65
76766;BME280;65707;52.362;6.588;2023-03-01T10:16:37;102838.88;;;13.46;30.97
76766;BME280;65707;52.362;6.588;2023-03-01T10:19:22;102836.00;;;13.38;30.42
76766;BME280;65707;52.362;6.588;2023-03-01T10:21:51;102823.69;;;13.54;29.84
76766;BME280;65707;52.362;6.588;2023-03-01T10:24:19;102820.16;;;13.54;29.65
76766;BME280;65707;52.362;6.588;2023-03-01T10:26:54;102818.97;;;13.47;30.21
76766;BME280;65707;52.362;6.588;2023-03-01T10:29:27;102808.38;;;13.93;28.51
76766;BME280;65707;52.362;6.588;2023-03-01T10:31:58;102807.81;;;13.80;29.14
76766;BME280;65707;52.362;6.588;2023-03-01T10:34:29;102814.91;;;13.52;29.24
76766;BME280;65707;52.362;6.588;2023-03-01T10:37:01;102813.22;;;13.99;28.86
76766;BME280;65707;52.362;6.588;2023-03-01T10:39:37;102809.50;;;14.00;28.19
76766;BME280;65707;52.362;6.588;2023-03-01T10:42:26;102809.22;;;14.03;28.93
76766;BME280;65707;52.362;6.588;2023-03-01T10:44:55;102793.88;;;13.75;29.18
76766;BME280;65707;52.362;6.588;2023-03-01T10:47:24;102810.66;;;13.97;28.42
76766;BME280;65707;52.362;6.588;2023-03-01T10:49:54;102797.16;;;14.26;27.85
76766;BME280;65707;52.362;6.588;2023-03-01T10:52:26;102807.81;;;13.80;28.23
76766;BME280;65707;52.362;6.588;2023-03-01T10:55:00;102817.19;;;14.33;28.64
76766;BME280;65707;52.362;6.588;2023-03-01T10:57:37;102811.34;;;14.19;28.74
76766;BME280;65707;52.362;6.588;2023-03-01T11:00:24;102817.19;;;14.04;29.86
76766;BME280;65707;52.362;6.588;2023-03-01T11:03:08;102805.63;;;14.50;28.22
76766;BME280;65707;52.362;6.588;2023-03-01T11:05:54;102814.47;;;14.33;29.41
76766;BME280;65707;52.362;6.588;2023-03-01T11:10:23;62398.63;;;-140.22;100.00
76766;BME280;65707;52.362;6.588;2023-03-01T11:14:55;62398.63;;;-140.22;100.00
76766;BME280;65707;52.362;6.588;2023-03-01T11:19:24;62398.63;;;-140.22;100.00
76766;BME280;65707;52.362;6.588;2023-03-01T11:23:53;62398.63;;;-140.22;100.00
76766;BME280;65707;52.362;6.588;2023-03-01T11:28:24;62398.63;;;-140.22;100.00
76766;BME280;65707;52.362;6.588;2023-03-01T11:33:03;62398.63;;;-140.22;100.00
76766;BME280;65707;52.362;6.588;2023-03-01T11:37:35;62398.63;;;-140.22;100.00
76766;BME280;65707;52.362;6.588;2023-03-01T11:42:15;62398.63;;;-140.22;100.00
76766;BME280;65707;52.362;6.588;2023-03-01T11:46:55;62398.63;;;-140.22;100.00
76766;BME280;65707;52.362;6.588;2023-03-01T11:51:38;62398.63;;;-140.22;100.00
76766;BME280;65707;52.362;6.588;2023-03-01T11:56:24;62398.63;;;-140.22;100.00
76766;BME280;65707;52.362;6.588;2023-03-01T12:01:02;62398.63;;;-140.22;100.00
76766;BME280;65707;52.362;6.588;2023-03-01T12:05:54;62398.63;;;-140.22;100.00
76766;BME280;65707;52.362;6.588;2023-03-01T12:10:37;62398.63;;;-140.22;100.00
76766;BME280;65707;52.362;6.588;2023-03-01T12:15:34;62398.63;;;-140.22;100.00
76766;BME280;65707;52.362;6.588;2023-03-01T12:20:20;62398.63;;;-140.22;100.00
76766;BME280;65707;52.362;6.588;2023-03-01T12:25:08;62398.63;;;-140.22;100.00
76766;BME280;65707;52.362;6.588;2023-03-01T12:29:57;62398.63;;;-140.22;100.00
76766;BME280;65707;52.362;6.588;2023-03-01T12:34:45;62398.63;;;-140.22;100.00
76766;BME280;65707;52.362;6.588;2023-03-01T12:39:35;62398.63;;;-140.22;100.00
76766;BME280;65707;52.362;6.588;2023-03-01T12:44:30;62398.63;;;-140.22;100.00
76766;BME280;65707;52.362;6.588;2023-03-01T12:49:17;62398.63;;;-140.22;100.00
76766;BME280;65707;52.362;6.588;2023-03-01T12:53:50;62398.63;;;-140.22;100.00
76766;BME280;65707;52.362;6.588;2023-03-01T12:58:27;62398.63;;;-140.22;100.00
76766;BME280;65707;52.362;6.588;2023-03-01T13:03:00;62398.63;;;-140.22;100.00
76766;BME280;65707;52.362;6.588;2023-03-01T13:07:41;62398.63;;;-140.22;100.00
76766;BME280;65707;52.362;6.588;2023-03-01T13:17:30;62398.63;;;-140.22;100.00
76766;BME280;65707;52.362;6.588;2023-03-01T13:27:22;62398.63;;;-140.22;100.00
76766;BME280;65707;52.362;6.588;2023-03-01T13:31:56;62398.63;;;-140.22;100.00
76766;BME280;65707;52.362;6.588;2023-03-01T13:36:47;62398.63;;;-140.22;100.00
76766;BME280;65707;52.362;6.588;2023-03-01T13:41:16;62398.63;;;-140.22;100.00
76766;BME280;65707;52.362;6.588;2023-03-01T13:45:45;62398.63;;;-140.22;100.00
76766;BME280;65707;52.362;6.588;2023-03-01T13:50:16;62398.63;;;-140.22;100.00
76766;BME280;65707;52.362;6.588;2023-03-01T13:54:47;62398.63;;;-140.22;100.00
76766;BME280;65707;52.362;6.588;2023-03-01T13:59:20;62398.63;;;-140.22;100.00
76766;BME280;65707;52.362;6.588;2023-03-01T14:03:57;62398.63;;;-140.22;100.00
76766;BME280;65707;52.362;6.588;2023-03-01T14:08:27;62398.63;;;-140.22;100.00
76766;BME280;65707;52.362;6.588;2023-03-01T14:13:05;62398.63;;;-140.22;100.00
76766;BME280;65707;52.362;6.588;2023-03-01T14:17:49;62398.63;;;-140.22;100.00
76766;BME280;65707;52.362;6.588;2023-03-01T14:22:22;62398.63;;;-140.22;100.00
76766;BME280;65707;52.362;6.588;2023-03-01T14:26:52;62398.63;;;-140.22;100.00
76766;BME280;65707;52.362;6.588;2023-03-01T14:31:31;62398.63;;;-140.22;100.00
76766;BME280;65707;52.362;6.588;2023-03-01T14:36:04;62398.63;;;-140.22;100.00
76766;BME280;65707;52.362;6.588;2023-03-01T14:40:33;62398.63;;;-140.22;100.00
76766;BME280;65707;52.362;6.588;2023-03-01T14:45:04;62398.63;;;-140.22;100.00
76766;BME280;65707;52.362;6.588;2023-03-01T14:49:35;62398.63;;;-140.22;100.00
76766;BME280;65707;52.362;6.588;2023-03-01T14:54:10;62398.63;;;-140.22;100.00
76766;BME280;65707;52.362;6.588;2023-03-01T14:58:50;62398.63;;;-140.22;100.00